createdAt,value
2018-09-18T00:01:27.751Z,15.48
2018-09-18T00:03:56.262Z,15.55
2018-09-18T00:06:24.825Z,15.65
2018-09-18T00:08:53.325Z,15.55
2018-09-18T00:11:21.818Z,15.49
2018-09-18T00:13:50.310Z,15.48
2018-09-18T00:16:18.821Z,15.45
2018-09-18T00:18:47.483Z,15.38
2018-09-18T00:21:15.957Z,15.36
2018-09-18T00:23:44.476Z,15.36
2018-09-18T00:26:12.975Z,15.29
2018-09-18T00:28:41.521Z,15.25
2018-09-18T00:31:10.803Z,15.14
2018-09-18T00:33:39.303Z,15.09
2018-09-18T00:36:07.854Z,14.99
2018-09-18T00:38:36.320Z,14.95
2018-09-18T00:41:04.799Z,14.96
2018-09-18T00:43:33.274Z,14.96
2018-09-18T00:46:01.770Z,14.88
2018-09-18T00:48:30.293Z,14.86
2018-09-18T00:50:58.835Z,14.95
2018-09-18T00:53:33.867Z,14.97
2018-09-18T00:56:02.399Z,14.95
2018-09-18T00:58:30.885Z,14.94
2018-09-18T01:00:59.391Z,14.88
2018-09-18T01:03:27.862Z,14.96
2018-09-18T01:05:56.429Z,15.06
2018-09-18T01:08:24.915Z,15.04
2018-09-18T01:10:53.425Z,15.11
2018-09-18T01:13:21.965Z,15.18
2018-09-18T01:15:50.517Z,15.22
2018-09-18T01:18:18.986Z,15.22
2018-09-18T01:20:47.513Z,15.25
2018-09-18T01:23:16.024Z,15.23
2018-09-18T01:25:44.833Z,15.31
2018-09-18T01:28:13.321Z,15.32
2018-09-18T01:30:41.781Z,15.25
2018-09-18T01:33:10.293Z,15.29
2018-09-18T01:35:38.794Z,15.28
2018-09-18T01:38:07.347Z,15.44
2018-09-18T01:40:35.847Z,15.37
2018-09-18T01:43:04.352Z,15.40
2018-09-18T01:45:33.119Z,15.42
2018-09-18T01:48:01.597Z,15.36
2018-09-18T01:50:30.092Z,15.31
2018-09-18T01:52:58.606Z,15.32
2018-09-18T01:55:27.214Z,15.30
2018-09-18T01:57:55.715Z,15.30
2018-09-18T02:00:24.264Z,15.33
2018-09-18T02:02:52.805Z,15.39
2018-09-18T02:05:21.578Z,15.54
2018-09-18T02:07:50.095Z,15.46
2018-09-18T02:10:18.579Z,15.41
2018-09-18T02:12:47.084Z,15.46
2018-09-18T02:15:15.615Z,15.39
2018-09-18T02:17:44.118Z,15.43
2018-09-18T02:20:12.638Z,15.55
2018-09-18T02:22:41.207Z,15.44
2018-09-18T02:25:09.700Z,15.33
2018-09-18T02:27:38.202Z,15.34
2018-09-18T02:30:06.728Z,15.52
2018-09-18T02:32:35.245Z,15.50
2018-09-18T02:35:03.872Z,15.36
2018-09-18T02:37:32.462Z,15.41
2018-09-18T02:40:01.061Z,15.29
2018-09-18T02:42:29.682Z,15.36
2018-09-18T02:44:58.187Z,15.28
2018-09-18T02:47:26.704Z,15.22
2018-09-18T02:49:55.349Z,15.09
2018-09-18T02:52:23.837Z,15.07
2018-09-18T02:54:52.363Z,15.09
2018-09-18T02:57:20.868Z,15.07
2018-09-18T02:59:49.385Z,14.93
2018-09-18T03:02:17.894Z,14.83
2018-09-18T03:04:46.393Z,14.89
2018-09-18T03:07:14.938Z,14.82
2018-09-18T03:09:43.519Z,14.79
2018-09-18T03:12:12.051Z,14.86
2018-09-18T03:14:40.550Z,14.85
2018-09-18T03:17:09.083Z,14.75
2018-09-18T03:19:37.610Z,14.75
2018-09-18T03:22:06.088Z,14.80
2018-09-18T03:24:34.569Z,14.67
2018-09-18T03:27:03.052Z,14.68
2018-09-18T03:29:31.530Z,14.66
2018-09-18T03:32:00.039Z,14.69
2018-09-18T03:34:28.586Z,14.79
2018-09-18T03:37:03.610Z,14.87
2018-09-18T03:39:32.112Z,14.84
2018-09-18T03:42:01.374Z,14.86
2018-09-18T03:44:30.742Z,15.00
2018-09-18T03:46:59.299Z,15.20
2018-09-18T03:49:27.978Z,15.25
2018-09-18T03:51:56.522Z,15.44
2018-09-18T03:54:24.997Z,15.79
2018-09-18T03:56:53.509Z,15.95
2018-09-18T03:59:21.993Z,15.77
2018-09-18T04:01:50.533Z,15.73
2018-09-18T04:04:19.013Z,15.67
2018-09-18T04:06:47.502Z,15.79
2018-09-18T04:09:15.979Z,15.80
2018-09-18T04:11:44.502Z,15.92
2018-09-18T04:14:13.006Z,16.12
2018-09-18T04:16:41.546Z,16.15
2018-09-18T04:19:10.013Z,16.17
2018-09-18T04:21:41.311Z,16.24
2018-09-18T04:24:09.825Z,16.13
2018-09-18T04:26:39.639Z,16.20
2018-09-18T04:29:09.006Z,16.12
2018-09-18T04:31:39.393Z,16.14
2018-09-18T04:34:07.940Z,16.27
2018-09-18T04:36:36.537Z,16.19
2018-09-18T04:39:08.378Z,16.26
2018-09-18T04:41:36.850Z,16.37
2018-09-18T04:44:05.350Z,16.46
2018-09-18T04:46:33.901Z,16.63
2018-09-18T04:49:02.416Z,16.61
2018-09-18T04:51:31.042Z,16.47
2018-09-18T04:53:59.663Z,16.36
2018-09-18T04:56:28.585Z,16.41
2018-09-18T04:58:57.054Z,16.34
2018-09-18T05:01:26.658Z,16.31
2018-09-18T05:03:55.349Z,16.35
2018-09-18T05:06:23.902Z,16.32
2018-09-18T05:08:52.383Z,16.39
2018-09-18T05:11:21.429Z,16.45
2018-09-18T05:13:50.029Z,16.37
2018-09-18T05:16:18.574Z,16.40
2018-09-18T05:18:47.143Z,16.68
2018-09-18T05:21:15.764Z,16.59
2018-09-18T05:23:44.411Z,16.56
2018-09-18T05:26:13.030Z,16.45
2018-09-18T05:28:41.585Z,16.58
2018-09-18T05:31:10.815Z,16.55
2018-09-18T05:33:39.511Z,16.70
2018-09-18T05:36:08.090Z,16.64
2018-09-18T05:38:36.706Z,16.64
2018-09-18T05:41:05.442Z,16.74
2018-09-18T05:43:34.374Z,16.65
2018-09-18T05:46:02.941Z,16.67
2018-09-18T05:48:33.721Z,16.81
2018-09-18T05:51:02.328Z,16.80
2018-09-18T05:53:30.908Z,16.80
2018-09-18T05:55:59.624Z,16.82
2018-09-18T05:58:28.589Z,16.91
2018-09-18T06:03:24.623Z,16.96
2018-09-18T06:05:53.174Z,17.18
2018-09-18T06:08:21.720Z,17.36
2018-09-18T06:10:50.279Z,17.44
2018-09-18T06:13:18.858Z,17.64
2018-09-18T06:15:47.415Z,17.67
2018-09-18T06:18:15.963Z,17.79
2018-09-18T06:20:44.717Z,17.88
2018-09-18T06:23:13.277Z,17.98
2018-09-18T06:25:41.786Z,18.01
2018-09-18T06:28:10.347Z,18.07
2018-09-18T06:30:38.963Z,18.13
2018-09-18T06:33:07.496Z,18.18
2018-09-18T06:35:36.034Z,18.41
2018-09-18T06:38:04.588Z,18.40
2018-09-18T06:40:33.085Z,18.55
2018-09-18T06:43:01.618Z,18.55
2018-09-18T06:45:30.166Z,18.50
2018-09-18T06:47:58.742Z,18.59
2018-09-18T06:50:27.217Z,18.65
2018-09-18T06:52:55.751Z,18.76
2018-09-18T06:55:24.303Z,18.77
2018-09-18T06:57:52.915Z,18.88
2018-09-18T07:00:21.462Z,18.99
2018-09-18T07:02:49.972Z,18.98
2018-09-18T07:05:18.539Z,19.13
2018-09-18T07:07:47.066Z,19.18
2018-09-18T07:10:15.558Z,19.20
2018-09-18T07:12:44.066Z,19.35
2018-09-18T07:15:12.614Z,19.52
2018-09-18T07:17:41.191Z,19.59
2018-09-18T07:20:09.792Z,19.73
2018-09-18T07:22:38.422Z,19.83
2018-09-18T07:25:07.021Z,19.94
2018-09-18T07:27:35.727Z,20.07
2018-09-18T07:30:04.832Z,20.18
2018-09-18T07:32:33.314Z,20.30
2018-09-18T07:35:01.860Z,20.46
2018-09-18T07:37:30.382Z,20.53
2018-09-18T07:39:58.874Z,20.65
2018-09-18T07:42:27.440Z,20.70
2018-09-18T07:44:56.945Z,20.80
2018-09-18T07:47:25.527Z,20.95
2018-09-18T07:49:54.117Z,21.03
2018-09-18T07:52:22.801Z,21.20
2018-09-18T07:54:51.271Z,21.30
2018-09-18T07:57:19.803Z,21.34
2018-09-18T07:59:48.378Z,21.42
2018-09-18T08:02:16.857Z,21.59
2018-09-18T08:04:45.427Z,21.70
2018-09-18T08:07:13.994Z,21.75
2018-09-18T08:09:42.528Z,21.87
2018-09-18T08:12:11.159Z,22.08
2018-09-18T08:14:39.615Z,22.14
2018-09-18T08:17:08.143Z,22.28
2018-09-18T08:19:36.868Z,22.40
2018-09-18T08:22:05.332Z,22.52
2018-09-18T08:24:33.870Z,22.60
2018-09-18T08:27:02.366Z,22.67
2018-09-18T08:29:31.124Z,22.88
2018-09-18T08:31:59.663Z,22.98
2018-09-18T08:34:28.207Z,23.01
2018-09-18T08:36:56.977Z,23.09
2018-09-18T08:39:25.601Z,23.15
2018-09-18T08:41:54.150Z,23.24
2018-09-18T08:44:22.676Z,23.31
2018-09-18T08:46:51.288Z,23.45
2018-09-18T08:49:19.856Z,23.55
2018-09-18T08:51:48.400Z,23.61
2018-09-18T08:54:16.931Z,23.65
2018-09-18T08:56:45.501Z,23.73
2018-09-18T08:59:14.100Z,23.87
2018-09-18T09:01:42.653Z,23.86
2018-09-18T09:04:11.267Z,23.87
2018-09-18T09:06:39.855Z,23.84
2018-09-18T09:09:11.351Z,23.90
2018-09-18T09:11:39.875Z,24.08
2018-09-18T09:14:08.699Z,24.20
2018-09-18T09:16:37.247Z,24.14
2018-09-18T09:19:05.877Z,24.10
2018-09-18T09:21:34.499Z,24.12
2018-09-18T09:24:03.065Z,24.19
2018-09-18T09:26:31.613Z,24.30
2018-09-18T09:29:00.214Z,24.33
2018-09-18T09:31:28.778Z,24.41
2018-09-18T09:33:57.310Z,24.51
2018-09-18T09:36:25.949Z,24.51
2018-09-18T09:38:54.660Z,24.64
2018-09-18T09:41:23.031Z,24.78
2018-09-18T09:43:51.637Z,24.73
2018-09-18T09:46:20.131Z,24.73
2018-09-18T09:48:48.638Z,24.81
2018-09-18T09:51:17.279Z,24.95
2018-09-18T09:53:46.920Z,24.92
2018-09-18T09:56:15.441Z,24.83
2018-09-18T09:58:43.954Z,24.94
2018-09-18T10:01:17.838Z,24.94
2018-09-18T10:03:46.369Z,25.02
2018-09-18T10:06:14.941Z,25.03
2018-09-18T10:08:44.155Z,24.98
2018-09-18T10:11:12.723Z,25.02
2018-09-18T10:13:41.240Z,25.31
2018-09-18T10:16:09.812Z,25.38
2018-09-18T10:18:38.366Z,25.34
2018-09-18T10:21:06.944Z,25.49
2018-09-18T10:23:35.462Z,25.69
2018-09-18T10:26:04.184Z,25.86
2018-09-18T10:28:32.655Z,25.76
2018-09-18T10:31:01.245Z,25.87
2018-09-18T10:33:29.757Z,25.95
2018-09-18T10:35:58.327Z,25.86
2018-09-18T10:38:26.827Z,25.99
2018-09-18T10:40:55.486Z,25.97
2018-09-18T10:43:24.950Z,26.00
2018-09-18T10:45:53.510Z,25.98
2018-09-18T10:48:22.027Z,26.01
2018-09-18T10:50:51.370Z,26.05
2018-09-18T10:53:20.025Z,26.08
2018-09-18T10:55:48.561Z,26.07
2018-09-18T10:58:17.080Z,26.15
2018-09-18T11:00:46.314Z,26.31
2018-09-18T11:03:15.261Z,26.40
2018-09-18T11:05:44.818Z,26.47
2018-09-18T11:08:15.803Z,26.44
2018-09-18T11:10:44.418Z,26.53
2018-09-18T11:13:13.895Z,26.49
2018-09-18T11:15:43.627Z,26.49
2018-09-18T11:18:13.104Z,26.54
2018-09-18T11:20:42.369Z,26.65
2018-09-18T11:23:11.794Z,26.61
2018-09-18T11:25:40.608Z,26.66
2018-09-18T11:28:12.383Z,26.66
2018-09-18T11:30:42.416Z,26.71
2018-09-18T11:33:12.346Z,26.72
2018-09-18T11:35:40.878Z,26.85
2018-09-18T11:38:09.626Z,26.90
2018-09-18T11:40:38.200Z,26.88
2018-09-18T11:43:06.790Z,26.87
2018-09-18T11:45:36.094Z,26.93
2018-09-18T11:48:04.596Z,26.89
2018-09-18T11:50:33.146Z,26.86
2018-09-18T11:53:01.926Z,26.87
2018-09-18T11:55:30.450Z,26.99
2018-09-18T11:57:59.533Z,27.06
2018-09-18T12:00:28.217Z,27.23
2018-09-18T12:02:56.863Z,27.23
2018-09-18T12:05:25.346Z,27.45
2018-09-18T12:07:53.910Z,27.45
2018-09-18T12:10:23.086Z,27.65
2018-09-18T12:12:51.607Z,27.68
2018-09-18T12:15:20.159Z,27.71
2018-09-18T12:17:49.452Z,27.66
2018-09-18T12:20:18.307Z,27.62
2018-09-18T12:22:46.898Z,27.56
2018-09-18T12:25:15.412Z,27.57
2018-09-18T12:27:44.058Z,27.69
2018-09-18T12:30:12.527Z,27.82
2018-09-18T12:32:41.081Z,27.69
2018-09-18T12:35:09.593Z,27.69
2018-09-18T12:37:38.127Z,27.71
2018-09-18T12:40:06.735Z,27.73
2018-09-18T12:42:35.372Z,27.71
2018-09-18T12:45:03.888Z,27.78
2018-09-18T12:47:32.386Z,27.78
2018-09-18T12:50:01.067Z,27.91
2018-09-18T12:52:29.445Z,27.78
2018-09-18T12:54:58.178Z,27.89
2018-09-18T12:57:26.854Z,27.88
2018-09-18T12:59:55.259Z,27.78
2018-09-18T13:02:23.909Z,27.63
2018-09-18T13:04:52.371Z,27.63
2018-09-18T13:07:20.931Z,27.84
2018-09-18T13:09:49.509Z,27.86
2018-09-18T13:12:17.989Z,27.95
2018-09-18T13:14:46.599Z,27.97
2018-09-18T13:17:15.237Z,27.83
2018-09-18T13:19:44.629Z,27.76
2018-09-18T13:22:13.126Z,27.76
2018-09-18T13:24:41.626Z,27.72
2018-09-18T13:27:10.186Z,27.85
2018-09-18T13:29:38.733Z,27.83
2018-09-18T13:32:07.507Z,27.87
2018-09-18T13:34:36.071Z,27.76
2018-09-18T13:37:04.711Z,27.74
2018-09-18T13:39:33.376Z,27.81
2018-09-18T13:42:02.261Z,27.81
2018-09-18T13:44:31.066Z,27.72
2018-09-18T13:46:59.550Z,27.71
2018-09-18T13:49:28.662Z,27.77
2018-09-18T13:51:57.272Z,27.92
2018-09-18T13:54:25.874Z,27.84
2018-09-18T13:56:54.427Z,27.76
2018-09-18T13:59:23.025Z,27.75
2018-09-18T14:01:51.646Z,27.76
2018-09-18T14:04:20.161Z,27.83
2018-09-18T14:06:48.696Z,27.89
2018-09-18T14:09:17.296Z,27.84
2018-09-18T14:11:45.806Z,27.85
2018-09-18T14:14:14.322Z,27.88
2018-09-18T14:16:42.853Z,27.76
2018-09-18T14:19:11.403Z,27.71
2018-09-18T14:21:39.993Z,27.74
2018-09-18T14:24:08.546Z,27.73
2018-09-18T14:26:37.209Z,27.73
2018-09-18T14:29:05.649Z,27.70
2018-09-18T14:31:34.217Z,27.62
2018-09-18T14:34:02.807Z,27.55
2018-09-18T14:36:31.335Z,27.55
2018-09-18T14:39:00.085Z,27.51
2018-09-18T14:41:28.573Z,27.46
2018-09-18T14:43:57.122Z,27.44
2018-09-18T14:46:25.651Z,27.47
2018-09-18T14:48:54.306Z,27.51
2018-09-18T14:51:22.998Z,27.53
2018-09-18T14:53:51.751Z,27.39
2018-09-18T14:56:20.323Z,27.34
2018-09-18T14:58:48.963Z,27.28
2018-09-18T15:01:17.615Z,27.30
2018-09-18T15:03:46.220Z,27.31
2018-09-18T15:06:14.748Z,27.24
2018-09-18T15:08:43.266Z,27.22
2018-09-18T15:11:11.851Z,27.17
2018-09-18T15:13:40.355Z,27.08
2018-09-18T15:16:08.867Z,27.08
2018-09-18T15:18:37.454Z,27.05
2018-09-18T15:21:06.000Z,27.09
2018-09-18T15:23:34.491Z,27.09
2018-09-18T15:26:02.997Z,27.06
2018-09-18T15:28:31.510Z,26.98
2018-09-18T15:31:00.041Z,26.93
2018-09-18T15:33:28.696Z,26.90
2018-09-18T15:35:57.202Z,26.83
2018-09-18T15:38:25.718Z,26.72
2018-09-18T15:40:54.293Z,26.67
2018-09-18T15:43:22.834Z,26.59
2018-09-18T15:48:24.805Z,26.41
2018-09-18T15:50:53.269Z,26.39
2018-09-18T15:53:21.839Z,26.28
2018-09-18T15:55:51.415Z,26.20
2018-09-18T15:58:20.695Z,26.19
2018-09-18T16:00:49.465Z,26.10
2018-09-18T16:03:17.994Z,26.05
2018-09-18T16:05:46.621Z,26.03
2018-09-18T16:08:15.140Z,25.84
2018-09-18T16:10:44.323Z,25.83
2018-09-18T16:13:13.155Z,25.73
2018-09-18T16:15:42.478Z,25.64
2018-09-18T16:18:11.083Z,25.55
2018-09-18T16:20:39.606Z,25.48
2018-09-18T16:23:08.862Z,25.48
2018-09-18T16:25:37.395Z,25.39
2018-09-18T16:28:06.271Z,25.33
2018-09-18T16:30:34.884Z,25.17
2018-09-18T16:33:03.947Z,25.06
2018-09-18T16:35:32.490Z,25.02
2018-09-18T16:38:01.137Z,24.99
2018-09-18T16:40:29.787Z,25.03
2018-09-18T16:42:58.861Z,24.95
2018-09-18T16:45:27.453Z,24.76
2018-09-18T16:47:55.986Z,24.67
2018-09-18T16:50:24.504Z,24.54
2018-09-18T16:52:53.039Z,24.44
2018-09-18T16:55:21.673Z,24.35
2018-09-18T16:57:50.326Z,24.26
2018-09-18T17:00:21.254Z,24.07
2018-09-18T17:02:49.851Z,23.96
2018-09-18T17:05:19.021Z,23.84
2018-09-18T17:07:47.597Z,23.76
2018-09-18T17:10:16.170Z,23.63
2018-09-18T17:12:44.700Z,23.51
2018-09-18T17:15:13.291Z,23.35
2018-09-18T17:17:42.544Z,23.21
2018-09-18T17:20:11.091Z,23.20
2018-09-18T17:22:39.652Z,23.03
2018-09-18T17:25:08.590Z,22.93
2018-09-18T17:27:37.534Z,22.83
2018-09-18T17:30:06.327Z,22.73
2018-09-18T17:32:35.707Z,22.64
2018-09-18T17:35:04.769Z,22.52
2018-09-18T17:37:34.447Z,22.43
2018-09-18T17:40:03.258Z,22.38
2018-09-18T17:42:31.823Z,22.26
2018-09-18T17:45:01.274Z,22.10
2018-09-18T17:47:29.882Z,22.02
2018-09-18T17:49:58.717Z,22.00
2018-09-18T17:52:27.205Z,21.90
2018-09-18T17:54:55.788Z,21.88
2018-09-18T17:57:24.279Z,21.76
2018-09-18T17:59:52.846Z,21.76
2018-09-18T18:02:22.042Z,21.68
2018-09-18T18:04:50.521Z,21.57
2018-09-18T18:07:19.081Z,21.56
2018-09-18T18:09:47.650Z,21.63
2018-09-18T18:12:16.816Z,21.58
2018-09-18T18:14:45.314Z,21.50
2018-09-18T18:17:13.831Z,21.34
2018-09-18T18:19:42.333Z,21.26
2018-09-18T18:22:10.988Z,21.16
2018-09-18T18:24:39.499Z,21.20
2018-09-18T18:27:08.098Z,21.06
2018-09-18T18:29:37.662Z,20.94
2018-09-18T18:32:06.767Z,20.81
2018-09-18T18:34:35.419Z,20.76
2018-09-18T18:37:03.979Z,20.69
2018-09-18T18:39:32.524Z,20.61
2018-09-18T18:42:01.054Z,20.58
2018-09-18T18:44:31.256Z,20.49
2018-09-18T18:46:59.755Z,20.44
2018-09-18T18:49:32.430Z,20.30
2018-09-18T18:52:00.966Z,20.27
2018-09-18T18:54:29.561Z,20.18
2018-09-18T18:56:58.154Z,20.08
2018-09-18T18:59:27.423Z,19.96
2018-09-18T19:01:55.975Z,19.97
2018-09-18T19:04:24.497Z,20.09
2018-09-18T19:06:53.415Z,20.11
2018-09-18T19:09:21.979Z,20.09
2018-09-18T19:11:51.586Z,19.95
2018-09-18T19:14:20.224Z,19.85
2018-09-18T19:16:48.854Z,19.75
2018-09-18T19:19:17.587Z,19.64
2018-09-18T19:21:46.171Z,19.58
2018-09-18T19:24:14.820Z,19.46
2018-09-18T19:26:43.347Z,19.32
2018-09-18T19:29:11.909Z,19.28
2018-09-18T19:31:41.185Z,19.12
2018-09-18T19:34:09.699Z,18.99
2018-09-18T19:36:38.229Z,19.01
2018-09-18T19:39:09.284Z,18.98
2018-09-18T19:41:37.912Z,18.96
2018-09-18T19:44:06.641Z,18.96
2018-09-18T19:46:35.248Z,18.91
2018-09-18T19:49:03.915Z,18.88
2018-09-18T19:51:32.808Z,18.79
2018-09-18T19:54:01.319Z,18.78
2018-09-18T19:56:31.328Z,18.67
2018-09-18T19:58:59.943Z,18.61
2018-09-18T20:01:28.520Z,18.54
2018-09-18T20:03:57.249Z,18.42
2018-09-18T20:06:25.860Z,18.38
2018-09-18T20:08:55.399Z,18.34
2018-09-18T20:11:23.989Z,18.40
2018-09-18T20:13:53.247Z,18.29
2018-09-18T20:16:21.788Z,18.21
2018-09-18T20:18:50.330Z,18.10
2018-09-18T20:21:18.908Z,18.06
2018-09-18T20:23:47.439Z,18.02
2018-09-18T20:26:15.934Z,17.92
2018-09-18T20:28:44.587Z,17.88
2018-09-18T20:31:13.193Z,17.86
2018-09-18T20:33:42.462Z,17.78
2018-09-18T20:36:11.158Z,17.78
2018-09-18T20:38:39.649Z,17.71
2018-09-18T20:41:08.256Z,17.66
2018-09-18T20:43:37.362Z,17.61
2018-09-18T20:46:05.919Z,17.57
2018-09-18T20:48:34.503Z,17.48
2018-09-18T20:51:03.970Z,17.44
2018-09-18T20:53:32.495Z,17.41
2018-09-18T20:56:01.946Z,17.38
2018-09-18T20:58:30.451Z,17.30
2018-09-18T21:00:59.321Z,17.29
2018-09-18T21:03:27.939Z,17.19
2018-09-18T21:05:56.510Z,17.22
2018-09-18T21:08:25.081Z,17.27
2018-09-18T21:10:53.724Z,17.22
2018-09-18T21:13:22.270Z,17.20
2018-09-18T21:15:50.808Z,17.27
2018-09-18T21:18:19.356Z,17.29
2018-09-18T21:20:48.307Z,17.30
2018-09-18T21:23:16.918Z,17.23
2018-09-18T21:26:17.520Z,17.15
2018-09-18T21:28:46.044Z,17.11
2018-09-18T21:31:14.606Z,17.11
2018-09-18T21:33:43.471Z,17.07
2018-09-18T21:36:12.085Z,17.04
2018-09-18T21:38:41.259Z,17.05
2018-09-18T21:41:09.838Z,16.99
2018-09-18T21:43:38.739Z,16.89
2018-09-18T21:46:08.137Z,16.90
2018-09-18T21:48:38.094Z,16.97
2018-09-18T21:51:07.246Z,17.00
2018-09-18T21:53:36.284Z,17.02
2018-09-18T21:56:04.823Z,17.06
2018-09-18T21:58:33.497Z,17.01
2018-09-18T22:01:04.507Z,16.99
2018-09-18T22:03:33.519Z,17.03
2018-09-18T22:06:02.633Z,17.06
2018-09-18T22:08:31.233Z,17.08
2018-09-18T22:10:59.749Z,17.13
2018-09-18T22:13:28.270Z,17.03
2018-09-18T22:15:56.825Z,17.03
2018-09-18T22:18:25.429Z,17.03
2018-09-18T22:20:53.964Z,16.96
2018-09-18T22:23:22.665Z,16.97
2018-09-18T22:25:51.206Z,16.95
2018-09-18T22:28:19.739Z,16.94
2018-09-18T22:30:48.271Z,16.96
2018-09-18T22:33:17.894Z,16.95
2018-09-18T22:35:46.465Z,16.95
2018-09-18T22:38:15.579Z,17.00
2018-09-18T22:40:45.051Z,16.84
2018-09-18T22:43:13.710Z,16.90
2018-09-18T22:45:42.663Z,16.82
2018-09-18T22:48:11.162Z,16.77
2018-09-18T22:50:39.668Z,16.72
2018-09-18T22:53:08.227Z,16.81
2018-09-18T22:55:36.754Z,16.82
2018-09-18T22:58:05.374Z,16.81
2018-09-18T23:00:33.920Z,16.78
2018-09-18T23:03:02.606Z,16.75
2018-09-18T23:05:31.099Z,16.79
2018-09-18T23:07:59.650Z,16.76
2018-09-18T23:10:28.137Z,16.69
2018-09-18T23:12:57.218Z,16.62
2018-09-18T23:15:25.765Z,16.72
2018-09-18T23:17:54.285Z,16.74
2018-09-18T23:20:22.809Z,16.78
2018-09-18T23:22:51.386Z,16.74
2018-09-18T23:25:19.893Z,16.77
2018-09-18T23:27:49.101Z,16.76
2018-09-18T23:30:17.706Z,16.83
2018-09-18T23:32:46.187Z,16.72
2018-09-18T23:35:14.864Z,16.76
2018-09-18T23:37:43.395Z,16.70
2018-09-18T23:40:12.018Z,16.61
2018-09-18T23:42:40.518Z,16.60
2018-09-18T23:45:09.083Z,16.55
2018-09-18T23:47:37.604Z,16.65
2018-09-18T23:50:06.282Z,16.56
2018-09-18T23:52:34.852Z,16.60
2018-09-18T23:55:03.375Z,16.60
2018-09-18T23:57:32.653Z,16.56
